Time;durP1;ratioP1;P1;durP2;ratioP2;P2;SDS_P1;SDS_P2;PMS_P1;PMS_P2;Temp;Humidity;BMP_temperature;BMP_pressure;BME280_temperature;BME280_humidity;BME280_pressure;Samples;Min_cycle;Max_cycle;Signal;HPM_P1;HPM_P2
2023/07/12 00:01:01;1544125.00;5.15;2726.43;79825.00;0.27;138.74;;;;;25.00;4.00;;;;;;2267348;61;1137;-83
2023/07/12 00:03:36;1398304.00;4.66;2453.18;68581.00;0.23;119.31;;;;;24.80;5.10;;;;;;2267995;61;1149;-85
2023/07/12 00:06:13;1207673.00;4.03;2104.10;102566.00;0.34;178.00;;;;;24.50;6.20;;;;;;2267822;61;1568;-87
2023/07/12 00:08:45;888559.00;2.96;1536.03;141180.00;0.47;244.61;;;;;24.10;6.40;;;;;;2267863;61;1433;-87
2023/07/12 00:11:32;902937.00;3.01;1561.28;21618.00;0.07;38.07;;;;;23.70;8.10;;;;;;2267611;61;1150;-84
2023/07/12 00:14:01;232019.00;0.77;401.02;0.00;0.00;0.62;;;;;23.70;7.30;;;;;;2267117;61;1056;-84
2023/07/12 00:16:30;194979.00;0.65;337.28;29390.00;0.10;51.53;;;;;23.40;8.30;;;;;;2266370;61;1534;-84
2023/07/12 00:18:58;193745.00;0.65;335.16;60335.00;0.20;105.06;;;;;23.60;8.60;;;;;;2266246;61;2018;-84
2023/07/12 00:21:30;244654.00;0.82;422.76;0.00;0.00;0.62;;;;;23.80;7.40;;;;;;2266460;61;1145;-85
2023/07/12 00:23:59;142309.00;0.47;246.55;0.00;0.00;0.62;;;;;23.90;7.90;;;;;;2267306;61;1146;-83
2023/07/12 00:26:31;0.00;0.00;0.62;0.00;0.00;0.62;;;;;24.00;7.90;;;;;;2267342;61;1095;-86
2023/07/12 00:29:01;339541.00;1.13;585.88;758.00;0.00;1.93;;;;;23.90;7.90;;;;;;2267060;61;1323;-86
2023/07/12 00:31:39;1145266.00;3.82;1991.57;89302.00;0.30;155.10;;;;;23.60;9.80;;;;;;2267482;61;1708;-86
2023/07/12 00:34:13;180628.00;0.60;312.57;14155.00;0.05;25.15;;;;;23.70;10.00;;;;;;2267099;61;1151;-85
2023/07/12 00:36:40;161423.00;0.54;279.49;0.00;0.00;0.62;;;;;23.70;10.20;;;;;;2266930;61;1150;-85
2023/07/12 00:39:07;1223847.00;4.08;2133.40;30875.00;0.10;54.10;;;;;23.60;10.90;;;;;;2267117;61;2002;-85
2023/07/12 00:41:54;1212476.00;4.04;2112.79;47046.00;0.16;82.08;;;;;23.30;11.80;;;;;;2266843;61;1078;-84
2023/07/12 00:44:31;1112654.00;3.71;1933.07;83172.00;0.28;144.52;;;;;23.20;11.60;;;;;;2267119;61;1201;-86
2023/07/12 00:47:06;919102.00;3.06;1589.69;74194.00;0.25;129.01;;;;;23.10;12.00;;;;;;2267070;61;1082;-86
2023/07/12 00:49:35;126955104.00;423.18;82903712.00;125159.00;0.42;216.98;;;;;23.30;12.40;;;;;;2267186;61;1688;-86
2023/07/12 00:52:15;510472.00;1.70;879.86;59550.00;0.20;103.70;;;;;23.10;13.30;;;;;;2267479;61;1177;-86
2023/07/12 00:55:00;718675.00;2.40;1239.64;97081.00;0.32;168.53;;;;;23.10;12.80;;;;;;2266742;61;1640;-85
2023/07/12 00:57:34;640648.00;2.14;1104.46;45739.00;0.15;79.82;;;;;23.10;13.10;;;;;;2267311;61;1574;-85
2023/07/12 01:00:17;450628.00;1.50;776.86;59645.00;0.20;103.86;;;;;23.10;12.70;;;;;;2267332;61;1973;-88
2023/07/12 01:03:01;448347.00;1.49;772.94;67578.00;0.23;117.57;;;;;23.00;12.40;;;;;;2267468;61;1903;-87
2023/07/12 01:05:36;948770.00;3.16;1641.94;131406.00;0.44;227.75;;;;;23.20;12.30;;;;;;2267501;61;1443;-87
2023/07/12 01:08:23;1176101.00;3.92;2047.07;137840.00;0.46;238.85;;;;;23.30;10.60;;;;;;2267331;61;1592;-85
2023/07/12 01:11:15;138015328.00;460.05;106540248.00;51498.00;0.17;89.78;;;;;23.40;10.70;;;;;;2268262;61;994;-86
2023/07/12 01:13:54;585605.00;1.95;1009.37;44223.00;0.15;77.19;;;;;23.60;9.20;;;;;;2267574;61;1126;-85
2023/07/12 01:16:30;177850.00;0.59;307.79;0.00;0.00;0.62;;;;;23.80;8.90;;;;;;2268199;61;1572;-86
2023/07/12 01:22:39;624384.00;2.08;1076.34;611.00;0.00;1.68;;;;;24.00;7.70;;;;;;2265060;61;1311;-85
2023/07/12 01:28:16;562136.00;1.87;968.88;56888.00;0.19;99.10;;;;;24.10;7.70;;;;;;2270995;61;1439;-86
2023/07/12 01:37:31;86996.00;0.29;151.12;0.00;0.00;0.62;;;;;24.10;9.10;;;;;;2263398;61;1702;-85
2023/07/12 01:43:40;396496.00;1.32;683.78;65054.00;0.22;113.21;;;;;24.20;6.80;;;;;;2262591;61;1352;-87
2023/07/12 01:46:32;1626706.00;5.42;2883.89;85568.00;0.29;148.65;;;;;24.20;9.20;;;;;;2260066;61;1659;-86
2023/07/12 01:49:16;333030.00;1.11;574.69;0.00;0.00;0.62;;;;;24.10;6.70;;;;;;2263439;61;1424;-86
2023/07/12 01:51:54;446592.00;1.49;769.92;0.00;0.00;0.62;;;;;24.20;7.60;;;;;;2263175;61;1453;-84
2023/07/12 01:54:33;379680.00;1.27;654.88;0.00;0.00;0.62;;;;;24.10;6.80;;;;;;2263682;61;1653;-84
2023/07/12 01:57:21;470721.00;1.57;811.43;63150.00;0.21;109.92;;;;;24.10;6.80;;;;;;2263367;61;2252;-85
2023/07/12 02:00:07;331978.00;1.11;572.89;0.00;0.00;0.62;;;;;24.20;7.90;;;;;;2263180;61;1924;-84
2023/07/12 02:02:34;451599.00;1.51;778.53;126403.00;0.42;219.13;;;;;24.30;7.10;;;;;;2263480;61;1944;-86
2023/07/12 02:05:09;207988.00;0.69;359.67;0.00;0.00;0.62;;;;;24.30;7.10;;;;;;2263413;61;993;-87
2023/07/12 02:10:36;228460.00;0.76;394.90;17159.00;0.06;30.35;;;;;24.00;8.40;;;;;;2271905;61;1582;-86
2023/07/12 02:13:18;264136.00;0.88;456.26;0.00;0.00;0.62;;;;;24.10;7.00;;;;;;2272046;61;1837;-84
2023/07/12 02:15:49;165186.00;0.55;285.97;0.00;0.00;0.62;;;;;24.40;7.70;;;;;;2271938;61;1425;-85
2023/07/12 02:18:21;221448.00;0.74;382.84;0.00;0.00;0.62;;;;;24.20;8.10;;;;;;2272125;61;1396;-86
2023/07/12 02:20:55;181174.00;0.60;313.51;0.00;0.00;0.62;;;;;24.30;8.10;;;;;;2271989;61;1927;-85
2023/07/12 02:23:28;150714.00;0.50;261.04;0.00;0.00;0.62;;;;;24.30;7.00;;;;;;2271978;61;1328;-85
2023/07/12 02:25:55;363162.00;1.21;626.48;58784.00;0.20;102.37;;;;;24.30;6.70;;;;;;2263895;61;1683;-85
2023/07/12 02:28:24;569632.00;1.90;981.81;60193.00;0.20;104.81;;;;;24.30;5.20;;;;;;2263435;61;1650;-85
2023/07/12 02:30:52;362000.00;1.21;624.49;16252.00;0.05;28.78;;;;;24.20;4.40;;;;;;2265280;61;1624;-83
2023/07/12 02:33:21;485309.00;1.62;836.53;36938.00;0.12;64.59;;;;;24.10;4.50;;;;;;2267966;61;1654;-86
2023/07/12 02:35:51;159312.00;0.53;275.85;0.00;0.00;0.62;;;;;23.90;4.40;;;;;;2267979;61;1407;-86
2023/07/12 02:38:20;476321.00;1.59;821.07;35396.00;0.12;61.92;;;;;23.50;5.40;;;;;;2268003;61;1732;-86
2023/07/12 02:40:48;338560.00;1.13;584.20;0.00;0.00;0.62;;;;;23.30;6.90;;;;;;2267656;61;1932;-85
2023/07/12 02:43:17;339512.00;1.13;585.83;99296.00;0.33;172.36;;;;;23.40;5.60;;;;;;2268006;61;1604;-88
2023/07/12 02:45:51;315612.00;1.05;544.76;8064.00;0.03;14.59;;;;;23.40;6.00;;;;;;2267581;61;1043;-84
2023/07/12 02:48:26;102559.00;0.34;177.99;0.00;0.00;0.62;;;;;23.50;5.30;;;;;;2267648;61;1490;-87
2023/07/12 02:50:53;289955.00;0.97;500.65;24353.00;0.08;42.81;;;;;23.40;5.00;;;;;;2267687;61;1581;-86
2023/07/12 02:53:21;438012.00;1.46;755.16;13022.00;0.04;23.18;;;;;23.50;5.10;;;;;;2267245;61;1144;-85
2023/07/12 02:55:49;375690.00;1.25;648.02;0.00;0.00;0.62;;;;;23.80;5.90;;;;;;2267240;61;1091;-85
2023/07/12 02:58:17;279592.00;0.93;482.84;44790.00;0.15;78.17;;;;;23.60;3.80;;;;;;2267406;61;1543;-85
2023/07/12 03:00:44;509387.00;1.70;877.99;121507.00;0.41;210.68;;;;;23.80;4.70;;;;;;2267180;61;1998;-86
2023/07/12 03:03:12;244606.00;0.82;422.67;20132.00;0.07;35.50;;;;;24.00;4.20;;;;;;2267421;61;1171;-85
2023/07/12 03:05:42;169326.00;0.56;293.11;4744.00;0.02;8.84;;;;;23.80;4.00;;;;;;2266967;61;1798;-84
2023/07/12 03:08:09;173640.00;0.58;300.54;0.00;0.00;0.62;;;;;24.00;3.80;;;;;;2267105;61;1345;-86
2023/07/12 03:10:37;372452.00;1.24;642.45;26858.00;0.09;47.14;;;;;24.20;3.50;;;;;;2267389;61;1085;-86
2023/07/12 03:13:04;269692.00;0.90;465.81;0.00;0.00;0.62;;;;;24.20;3.80;;;;;;2267780;61;1130;-85
2023/07/12 03:15:31;301739.00;1.01;520.91;34473.00;0.11;60.32;;;;;24.00;4.80;;;;;;2267593;61;1652;-86
2023/07/12 03:17:58;579326.00;1.93;998.54;182199.00;0.61;315.28;;;;;24.00;5.80;;;;;;2267319;61;1325;-85
2023/07/12 03:20:27;325318.00;1.08;561.44;97312.00;0.32;168.93;;;;;24.00;5.70;;;;;;2267551;61;2002;-86
2023/07/12 03:22:54;441814.00;1.47;761.70;0.00;0.00;0.62;;;;;24.10;6.80;;;;;;2267734;61;1612;-86
2023/07/12 03:25:21;298644.00;1.00;515.59;18155.00;0.06;32.07;;;;;24.10;6.40;;;;;;2267756;61;1598;-85
2023/07/12 03:27:48;408230.00;1.36;703.95;45717.00;0.15;79.78;;;;;24.00;7.20;;;;;;2267576;61;1376;-84
2023/07/12 03:30:15;231405.00;0.77;399.97;52203.00;0.17;91.00;;;;;23.90;7.30;;;;;;2267585;61;1276;-85
2023/07/12 03:32:42;264300.00;0.88;456.54;7781.00;0.03;14.10;;;;;23.80;7.60;;;;;;2267520;61;1187;-86
2023/07/12 03:35:15;385461.00;1.28;664.81;5106.00;0.02;9.47;;;;;24.00;7.30;;;;;;2267616;61;1198;-86
2023/07/12 03:37:54;106459.00;0.35;184.72;0.00;0.00;0.62;;;;;23.90;6.30;;;;;;2267366;61;1289;-85
2023/07/12 03:40:27;683509.00;2.28;1178.65;113068.00;0.38;196.12;;;;;24.00;5.50;;;;;;2267271;61;1923;-86
2023/07/12 03:42:55;597778.00;1.99;1030.38;63736.00;0.21;110.93;;;;;24.00;5.10;;;;;;2267667;61;1344;-85
2023/07/12 03:45:23;191465.00;0.64;331.23;0.00;0.00;0.62;;;;;23.90;5.60;;;;;;2267415;61;1646;-86
2023/07/12 03:47:50;217350.00;0.72;375.78;0.00;0.00;0.62;;;;;23.80;6.40;;;;;;2267273;61;1372;-85
2023/07/12 03:50:17;182428.00;0.61;315.67;0.00;0.00;0.62;;;;;23.80;6.90;;;;;;2267268;61;1563;-86
2023/07/12 03:52:45;250806.00;0.84;433.34;21022.00;0.07;37.04;;;;;24.00;7.00;;;;;;2267018;61;1599;-86
2023/07/12 03:55:12;289848.00;0.97;500.47;0.00;0.00;0.62;;;;;23.90;7.00;;;;;;2267413;61;1194;-87
2023/07/12 03:57:41;317436.00;1.06;547.89;21575.00;0.07;38.00;;;;;24.10;6.70;;;;;;2268054;61;1294;-85
2023/07/12 04:00:09;39256.00;0.13;68.60;0.00;0.00;0.62;;;;;24.00;6.90;;;;;;2268120;61;1932;-86
2023/07/12 04:02:36;457557.00;1.53;788.78;148.00;0.00;0.88;;;;;23.90;6.90;;;;;;2268196;61;1003;-89
2023/07/12 04:05:04;616222.00;2.05;1062.24;67019.00;0.22;116.61;;;;;23.80;7.20;;;;;;2268230;61;1013;-87
2023/07/12 04:07:31;393028.00;1.31;677.82;50217.00;0.17;87.56;;;;;23.70;7.10;;;;;;2268129;61;1393;-87
2023/07/12 04:09:59;332460.00;1.11;573.71;19949.00;0.07;35.18;;;;;23.70;7.20;;;;;;2268018;61;1033;-85
2023/07/12 04:12:26;228223.00;0.76;394.49;0.00;0.00;0.62;;;;;23.80;7.00;;;;;;2267925;61;1549;-85
2023/07/12 04:14:54;251073.00;0.84;433.80;0.00;0.00;0.62;;;;;23.80;6.40;;;;;;2267205;61;1551;-85
2023/07/12 04:17:21;139482.00;0.46;241.68;17092.00;0.06;30.23;;;;;23.80;6.70;;;;;;2267790;61;1156;-85
2023/07/12 04:19:48;475355.00;1.58;819.40;64988.00;0.22;113.10;;;;;24.00;7.20;;;;;;2268231;61;1990;-87
2023/07/12 04:22:16;387922.00;1.29;669.04;13320.00;0.04;23.70;;;;;24.10;6.90;;;;;;2268267;61;985;-87
2023/07/12 04:24:42;156432.00;0.52;270.89;0.00;0.00;0.62;;;;;24.10;6.20;;;;;;2268213;61;1051;-87
2023/07/12 04:27:11;85238.00;0.28;148.08;0.00;0.00;0.62;;;;;24.30;5.80;;;;;;2268212;61;997;-85
2023/07/12 04:29:37;177489.00;0.59;307.17;0.00;0.00;0.62;;;;;24.30;6.00;;;;;;2268158;61;1465;-87
2023/07/12 04:32:05;89497.00;0.30;155.44;0.00;0.00;0.62;;;;;24.50;4.60;;;;;;2268209;61;1091;-86
2023/07/12 04:34:32;116557.00;0.39;202.14;0.00;0.00;0.62;;;;;24.50;5.50;;;;;;2268182;61;1104;-86
2023/07/12 04:36:59;233726.00;0.78;403.96;93485.00;0.31;162.32;;;;;24.50;5.30;;;;;;2267738;61;961;-84
2023/07/12 04:39:26;96376.00;0.32;167.32;0.00;0.00;0.62;;;;;24.40;5.40;;;;;;2266455;61;1368;-83
2023/07/12 04:41:53;128280.00;0.43;222.36;0.00;0.00;0.62;;;;;24.30;6.30;;;;;;2266764;61;1940;-83
2023/07/12 04:44:21;559853.00;1.87;964.95;131007.00;0.44;227.07;;;;;24.30;6.70;;;;;;2266147;61;1213;-84
2023/07/12 04:46:48;547849.00;1.83;944.25;7252.00;0.02;13.19;;;;;24.40;6.80;;;;;;2266079;61;1193;-84
2023/07/12 04:49:15;1203489.00;4.01;2096.53;154076.00;0.51;266.83;;;;;24.40;6.10;;;;;;2266201;61;1274;-84
2023/07/12 04:51:42;993771.00;3.31;1721.44;80363.00;0.27;139.66;;;;;24.40;6.70;;;;;;2267045;61;1118;-85
2023/07/12 04:54:09;1130016.00;3.77;1964.19;102093.00;0.34;177.18;;;;;24.40;6.30;;;;;;2267079;61;2050;-85
2023/07/12 04:56:36;794944.00;2.65;1372.31;55220.00;0.18;96.21;;;;;24.30;6.20;;;;;;2267497;61;1125;-84
2023/07/12 04:59:03;195928.00;0.65;338.91;0.00;0.00;0.62;;;;;23.80;8.20;;;;;;2267543;61;1391;-85
2023/07/12 05:01:31;733599.00;2.45;1265.55;110428.00;0.37;191.57;;;;;23.60;8.80;;;;;;2267018;61;2005;-86
2023/07/12 05:03:59;608299.00;2.03;1048.55;152939.00;0.51;264.87;;;;;23.70;8.90;;;;;;2267039;61;1291;-83
2023/07/12 05:06:26;289759.00;0.97;500.32;61788.00;0.21;107.57;;;;;23.90;7.90;;;;;;2266931;61;1173;-84
2023/07/12 05:08:53;243388.00;0.81;420.58;50788.00;0.17;88.55;;;;;24.10;7.40;;;;;;2266402;61;1313;-84
2023/07/12 05:11:20;356471.00;1.19;614.98;68720.00;0.23;119.55;;;;;24.40;6.60;;;;;;2266360;61;1176;-85
2023/07/12 05:13:47;350324.00;1.17;604.42;96058.00;0.32;166.77;;;;;24.50;5.30;;;;;;2266617;61;1241;-85
2023/07/12 05:16:14;337425.00;1.12;582.25;69943.00;0.23;121.66;;;;;24.50;5.20;;;;;;2266760;61;1130;-85
2023/07/12 05:18:42;422634.00;1.41;728.72;51669.00;0.17;90.07;;;;;24.40;5.20;;;;;;2266177;61;1269;-85
2023/07/12 05:21:09;148587.00;0.50;257.37;0.00;0.00;0.62;;;;;24.60;5.60;;;;;;2266218;61;2008;-85
2023/07/12 05:23:39;639919.00;2.13;1103.20;126443.00;0.42;219.20;;;;;24.30;6.00;;;;;;2266761;61;1137;-84
2023/07/12 05:26:07;558024.00;1.86;961.79;162848.00;0.54;281.95;;;;;24.10;7.30;;;;;;2267255;61;1256;-84
2023/07/12 05:28:34;0.00;0.00;0.62;0.00;0.00;0.62;;;;;24.00;7.70;;;;;;2265910;61;1387;-85
2023/07/12 05:31:06;151490.00;0.50;262.38;0.00;0.00;0.62;;;;;24.20;7.50;;;;;;2266307;61;1177;-85
2023/07/12 05:33:33;61081.00;0.20;106.35;0.00;0.00;0.62;;;;;24.40;7.00;;;;;;2266390;61;1102;-85
2023/07/12 05:36:03;532013.00;1.77;916.96;132433.00;0.44;229.52;;;;;24.50;6.70;;;;;;2266946;61;1125;-85
2023/07/12 05:38:30;809836.00;2.70;1398.28;59665.00;0.20;103.90;;;;;24.70;6.50;;;;;;2266758;61;1252;-85
2023/07/12 05:40:58;402637.00;1.34;694.34;9658.00;0.03;17.36;;;;;24.60;6.40;;;;;;2266041;61;2002;-85
2023/07/12 05:43:25;82312.00;0.27;143.03;0.00;0.00;0.62;;;;;24.70;5.90;;;;;;2266227;61;1637;-84
2023/07/12 05:45:52;312396.00;1.04;539.23;37976.00;0.13;66.39;;;;;24.90;7.20;;;;;;2266742;61;1163;-85
2023/07/12 05:48:19;282454.00;0.94;487.76;0.00;0.00;0.62;;;;;25.20;5.90;;;;;;2268005;61;1388;-86
2023/07/12 05:50:50;117582.00;0.39;203.91;0.00;0.00;0.62;;;;;25.40;4.30;;;;;;2268023;61;1052;-83
2023/07/12 05:53:18;12154.00;0.04;21.68;0.00;0.00;0.62;;;;;25.70;2.60;;;;;;2267896;61;1071;-85
2023/07/12 05:55:45;91128.00;0.30;158.26;24872.00;0.08;43.71;;;;;25.80;2.30;;;;;;2267927;61;1070;-86
2023/07/12 05:58:12;27852.00;0.09;48.86;0.00;0.00;0.62;;;;;25.80;2.10;;;;;;2268747;61;1395;-85
2023/07/12 06:00:39;71491.00;0.24;124.34;0.00;0.00;0.62;;;;;25.90;3.60;;;;;;2267098;61;1993;-84
2023/07/12 06:03:06;129359.00;0.43;224.22;0.00;0.00;0.62;;;;;26.10;1.20;;;;;;2266238;61;1125;-85
2023/07/12 06:05:33;0.00;0.00;0.62;0.00;0.00;0.62;;;;;26.40;1.00;;;;;;2266452;61;1153;-85
2023/07/12 06:08:00;165581.00;0.55;286.65;37007.00;0.12;64.71;;;;;26.30;1.00;;;;;;2266419;61;1391;-85
2023/07/12 06:10:28;81891.00;0.27;142.30;0.00;0.00;0.62;;;;;26.20;1.00;;;;;;2266057;61;1076;-85
2023/07/12 06:12:55;22150.00;0.07;38.99;0.00;0.00;0.62;;;;;26.20;1.00;;;;;;2266214;61;1094;-84
2023/07/12 06:15:22;274225.00;0.91;473.61;5993.00;0.02;11.01;;;;;26.10;1.10;;;;;;2265610;61;2208;-85
2023/07/12 06:17:49;380320.00;1.27;655.98;159120.00;0.53;275.52;;;;;26.40;1.00;;;;;;2265454;61;1275;-84
2023/07/12 06:20:16;51677.00;0.17;90.09;0.00;0.00;0.62;;;;;26.30;1.30;;;;;;2265529;61;2001;-85
2023/07/12 06:22:43;291301.00;0.97;502.97;72954.00;0.24;126.86;;;;;26.30;1.00;;;;;;2265528;61;1776;-85
2023/07/12 06:25:10;145592.00;0.49;252.21;4883.00;0.02;9.08;;;;;26.50;1.00;;;;;;2265583;61;1079;-86
2023/07/12 06:27:38;0.00;0.00;0.62;0.00;0.00;0.62;;;;;27.30;1.00;;;;;;2265581;61;1364;-86
2023/07/12 06:30:06;67117.00;0.22;116.78;0.00;0.00;0.62;;;;;28.40;1.00;;;;;;2265342;61;1129;-86
2023/07/12 06:32:32;64879.00;0.22;112.91;0.00;0.00;0.62;;;;;29.10;1.00;;;;;;2265425;61;1155;-85
2023/07/12 06:34:59;74.00;0.00;0.75;0.00;0.00;0.62;;;;;29.90;1.00;;;;;;2264910;61;1155;-85
2023/07/12 06:37:26;90639.00;0.30;157.41;0.00;0.00;0.62;;;;;30.30;1.00;;;;;;2265502;61;1270;-86
2023/07/12 06:39:53;119248.00;0.40;206.79;28640.00;0.10;50.23;;;;;30.60;1.00;;;;;;2265199;61;2280;-86
2023/07/12 06:42:20;0.00;0.00;0.62;0.00;0.00;0.62;;;;;30.90;1.00;;;;;;2264772;61;1944;-85
2023/07/12 06:44:48;123686.00;0.41;214.44;0.00;0.00;0.62;;;;;30.30;1.00;;;;;;2265764;61;1599;-86
2023/07/12 06:47:15;606038.00;2.02;1044.65;111893.00;0.37;194.10;;;;;29.30;1.00;;;;;;2265790;61;1150;-87
2023/07/12 06:49:42;187864.00;0.63;325.03;4884.00;0.02;9.08;;;;;29.00;1.00;;;;;;2265167;61;1270;-86
2023/07/12 06:52:10;11979.00;0.04;21.38;0.00;0.00;0.62;;;;;28.90;1.00;;;;;;2265348;61;1126;-86
2023/07/12 06:54:37;122125.00;0.41;211.75;0.00;0.00;0.62;;;;;29.20;1.00;;;;;;2265699;61;1091;-86
2023/07/12 06:57:04;254840.00;0.85;440.27;3338.00;0.01;6.41;;;;;29.70;1.00;;;;;;2265319;61;1210;-87
2023/07/12 06:59:31;115775.00;0.39;200.79;0.00;0.00;0.62;;;;;30.30;1.00;;;;;;2265133;61;1374;-84
2023/07/12 07:01:59;43020.00;0.14;75.11;0.00;0.00;0.62;;;;;31.70;1.00;;;;;;2265021;61;2000;-85
2023/07/12 07:04:26;188410.00;0.63;325.97;0.00;0.00;0.62;;;;;33.00;1.00;;;;;;2265254;61;1720;-85
2023/07/12 07:06:53;295368.00;0.98;509.96;67940.00;0.23;118.20;;;;;34.10;1.00;;;;;;2265650;61;1090;-85
2023/07/12 07:09:20;188857.00;0.63;326.74;0.00;0.00;0.62;;;;;34.40;1.00;;;;;;2266268;61;1320;-85
2023/07/12 07:11:47;333048.00;1.11;574.72;0.00;0.00;0.62;;;;;34.70;1.00;;;;;;2265117;61;1197;-86
2023/07/12 07:14:14;181894.00;0.61;314.75;22724.00;0.08;39.99;;;;;33.90;1.00;;;;;;2265446;61;1779;-86
2023/07/12 07:16:41;169058.00;0.56;292.64;0.00;0.00;0.62;;;;;33.40;1.00;;;;;;2265442;61;1110;-85
2023/07/12 07:19:09;62428.00;0.21;108.67;0.00;0.00;0.62;;;;;33.20;1.00;;;;;;2266415;61;1276;-85
2023/07/12 07:21:36;438830.00;1.46;756.57;46379.00;0.15;80.92;;;;;33.80;1.00;;;;;;2264024;61;1938;-85
2023/07/12 07:24:03;40206.00;0.13;70.24;0.00;0.00;0.62;;;;;34.10;1.00;;;;;;2266709;61;1149;-85
2023/07/12 07:26:30;275744.00;0.92;476.22;23833.00;0.08;41.91;;;;;34.40;1.00;;;;;;2265522;61;1169;-84
2023/07/12 07:28:57;221896.00;0.74;383.61;0.00;0.00;0.62;;;;;34.50;1.00;;;;;;2267344;61;1345;-84
2023/07/12 07:31:24;566574.00;1.89;976.54;197689.00;0.66;341.95;;;;;34.80;1.00;;;;;;2267025;61;1224;-85
2023/07/12 07:33:51;350365.00;1.17;604.49;22204.00;0.07;39.09;;;;;35.10;1.00;;;;;;2264353;61;1207;-85
2023/07/12 07:36:19;23804.00;0.08;41.86;0.00;0.00;0.62;;;;;35.10;1.00;;;;;;2264144;61;1159;-85
2023/07/12 07:38:46;144205.00;0.48;249.82;0.00;0.00;0.62;;;;;35.50;1.00;;;;;;2263800;61;1379;-85
2023/07/12 07:41:15;0.00;0.00;0.62;0.00;0.00;0.62;;;;;35.80;1.00;;;;;;2263897;61;1936;-86
2023/07/12 07:43:44;0.00;0.00;0.62;0.00;0.00;0.62;;;;;35.60;1.00;;;;;;2265517;61;1179;-86
2023/07/12 07:46:11;0.00;0.00;0.62;0.00;0.00;0.62;;;;;35.80;1.00;;;;;;2264756;61;1079;-86
2023/07/12 07:48:38;0.00;0.00;0.62;0.00;0.00;0.62;;;;;35.40;1.00;;;;;;2267689;61;1279;-88
2023/07/12 07:51:07;28507.00;0.10;50.00;0.00;0.00;0.62;;;;;35.50;1.00;;;;;;2268155;61;1135;-84
2023/07/12 07:53:35;0.00;0.00;0.62;0.00;0.00;0.62;;;;;36.10;1.00;;;;;;2268174;61;1073;-87
2023/07/12 07:56:02;380270.00;1.27;655.89;92603.00;0.31;160.80;;;;;36.40;1.00;;;;;;2265326;61;1199;-86
2023/07/12 07:58:29;76043.00;0.25;132.20;0.00;0.00;0.62;;;;;36.10;1.00;;;;;;2265000;61;1282;-85
2023/07/12 08:00:56;0.00;0.00;0.62;0.00;0.00;0.62;;;;;35.70;1.00;;;;;;2264672;61;1939;-86
2023/07/12 08:03:23;165349.00;0.55;286.25;0.00;0.00;0.62;;;;;35.80;1.00;;;;;;2264666;61;1165;-86
2023/07/12 08:05:50;107482.00;0.36;186.48;0.00;0.00;0.62;;;;;35.80;1.00;;;;;;2264471;61;1082;-86
2023/07/12 08:08:19;136797.00;0.46;237.05;40273.00;0.13;70.36;;;;;35.10;1.00;;;;;;2265273;61;1280;-85
2023/07/12 08:10:47;176405.00;0.59;305.30;33075.00;0.11;57.91;;;;;34.90;1.00;;;;;;2265074;61;1181;-86
2023/07/12 08:13:14;176290.00;0.59;305.10;51673.00;0.17;90.08;;;;;35.60;1.00;;;;;;2264209;61;1180;-86
2023/07/12 08:15:43;14140.00;0.05;25.12;0.00;0.00;0.62;;;;;36.10;1.00;;;;;;2265235;61;1175;-86
2023/07/12 08:18:11;0.00;0.00;0.62;0.00;0.00;0.62;;;;;35.70;1.00;;;;;;2264397;61;1359;-86
2023/07/12 08:20:37;398408.00;1.33;687.07;196970.00;0.66;340.71;;;;;36.30;1.00;;;;;;2264057;61;1213;-85
2023/07/12 08:23:04;74271.00;0.25;129.14;0.00;0.00;0.62;;;;;36.40;1.00;;;;;;2264449;61;1215;-86
2023/07/12 08:25:31;112779.00;0.38;195.63;47895.00;0.16;83.55;;;;;36.20;1.00;;;;;;2264245;61;1102;-87
2023/07/12 08:27:59;228042.00;0.76;394.18;0.00;0.00;0.62;;;;;36.40;1.00;;;;;;2264300;61;1295;-85
2023/07/12 08:30:26;1492.00;0.00;3.21;0.00;0.00;0.62;;;;;36.90;1.00;;;;;;2264125;61;1137;-86
2023/07/12 08:32:53;87781.00;0.29;152.48;0.00;0.00;0.62;;;;;36.40;1.00;;;;;;2264573;61;1190;-86
2023/07/12 08:35:20;0.00;0.00;0.62;0.00;0.00;0.62;;;;;36.20;1.00;;;;;;2264949;61;1070;-86
2023/07/12 08:37:47;0.00;0.00;0.62;0.00;0.00;0.62;;;;;36.00;1.00;;;;;;2265190;61;1378;-86
2023/07/12 08:40:16;118667.00;0.40;205.78;29976.00;0.10;52.54;;;;;36.30;1.00;;;;;;2266609;61;1086;-86
2023/07/12 08:42:44;293093.00;0.98;506.05;33714.00;0.11;59.01;;;;;36.10;1.00;;;;;;2267154;61;2009;-85
2023/07/12 08:45:23;59681.00;0.20;103.93;0.00;0.00;0.62;;;;;36.80;1.00;;;;;;2265146;61;1115;-85
2023/07/12 08:47:53;243441.00;0.81;420.67;28314.00;0.09;49.66;;;;;37.20;1.00;;;;;;2264774;61;1475;-86
2023/07/12 08:50:21;175366.00;0.58;303.51;16584.00;0.06;29.35;;;;;36.10;1.00;;;;;;2263957;61;1213;-85
2023/07/12 08:52:48;0.00;0.00;0.62;0.00;0.00;0.62;;;;;35.40;1.00;;;;;;2263776;61;1064;-85
2023/07/12 08:55:18;587542.00;1.96;1012.71;93790.00;0.31;162.85;;;;;35.70;1.00;;;;;;2263658;61;1680;-86
2023/07/12 08:57:45;0.00;0.00;0.62;0.00;0.00;0.62;;;;;36.30;1.00;;;;;;2264024;61;1348;-86
2023/07/12 09:00:20;57654.00;0.19;100.42;0.00;0.00;0.62;;;;;36.50;1.00;;;;;;2263689;61;1754;-85
2023/07/12 09:02:47;280725.00;0.94;484.78;0.00;0.00;0.62;;;;;36.40;1.00;;;;;;2262277;61;1939;-84
2023/07/12 09:05:17;389073.00;1.30;671.02;139287.00;0.46;241.34;;;;;36.90;1.00;;;;;;2262121;61;1153;-83
2023/07/12 09:07:51;82353.00;0.27;143.10;0.00;0.00;0.62;;;;;37.30;1.00;;;;;;2262596;61;1375;-83
2023/07/12 09:10:29;0.00;0.00;0.62;0.00;0.00;0.62;;;;;37.10;1.00;;;;;;2262743;61;1180;-85
2023/07/12 09:13:00;220138.00;0.73;380.58;17243.00;0.06;30.50;;;;;36.40;1.00;;;;;;2262802;61;1222;-84
2023/07/12 09:15:34;263615.00;0.88;455.36;52352.00;0.17;91.25;;;;;37.00;1.00;;;;;;2262853;61;1158;-85
2023/07/12 09:18:02;232840.00;0.78;402.43;25539.00;0.09;44.86;;;;;36.70;1.00;;;;;;2263210;61;1410;-83
2023/07/12 09:20:32;106089.00;0.35;184.08;0.00;0.00;0.62;;;;;36.00;1.00;;;;;;2263343;61;1173;-84
2023/07/12 09:23:00;241550.00;0.81;417.42;0.00;0.00;0.62;;;;;35.00;1.00;;;;;;2262817;61;2034;-85
2023/07/12 09:25:36;394492.00;1.31;680.34;45933.00;0.15;80.15;;;;;34.70;1.00;;;;;;2263212;61;1066;-86
2023/07/12 09:28:03;125462304.00;418.21;80010752.00;125284888.00;417.62;79671488.00;;;;;34.20;1.00;;;;;;2262993;61;1418;-85
2023/07/12 09:30:33;364988.00;1.22;629.62;0.00;0.00;0.62;;;;;34.20;1.00;;;;;;2263403;61;1114;-83
2023/07/12 09:33:05;31707.00;0.11;55.54;0.00;0.00;0.62;;;;;34.10;1.00;;;;;;2264057;61;1224;-85
2023/07/12 09:35:40;139674.00;0.47;242.01;0.00;0.00;0.62;;;;;33.30;1.00;;;;;;2263681;61;1217;-84
2023/07/12 09:38:11;45882.00;0.15;80.06;0.00;0.00;0.62;;;;;33.00;1.00;;;;;;2263600;61;1369;-86
2023/07/12 09:40:40;27075.00;0.09;47.52;0.00;0.00;0.62;;;;;32.80;1.00;;;;;;2263987;61;1184;-84
2023/07/12 09:43:18;0.00;0.00;0.62;0.00;0.00;0.62;;;;;33.20;1.00;;;;;;2263918;61;1936;-85
2023/07/12 09:45:59;0.00;0.00;0.62;0.00;0.00;0.62;;;;;33.70;1.00;;;;;;2263805;61;1074;-84
2023/07/12 09:48:35;246062.00;0.82;425.18;148.00;0.00;0.88;;;;;33.70;1.00;;;;;;2264019;61;1490;-83
2023/07/12 09:51:18;171267.00;0.57;296.45;88865.00;0.30;154.35;;;;;33.00;1.00;;;;;;2264080;61;1135;-84
2023/07/12 09:53:53;19169.00;0.06;33.83;0.00;0.00;0.62;;;;;33.20;1.00;;;;;;2264138;61;1179;-83
2023/07/12 09:56:26;134185.00;0.45;232.55;0.00;0.00;0.62;;;;;33.20;1.00;;;;;;2264417;61;1228;-85
2023/07/12 09:59:04;0.00;0.00;0.62;0.00;0.00;0.62;;;;;32.60;1.00;;;;;;2263772;61;1494;-84
2023/07/12 10:01:41;0.00;0.00;0.62;0.00;0.00;0.62;;;;;33.00;1.00;;;;;;2263357;61;1998;-84
2023/07/12 10:04:33;78708.00;0.26;136.81;0.00;0.00;0.62;;;;;33.60;1.00;;;;;;2264899;61;1239;-82
2023/07/12 10:07:08;172479.00;0.57;298.54;23241.00;0.08;40.88;;;;;33.80;1.00;;;;;;2264953;61;992;-83
2023/07/12 10:09:39;346923.00;1.16;598.57;0.00;0.00;0.62;;;;;33.80;1.00;;;;;;2265121;61;1689;-84
2023/07/12 10:12:15;476729.00;1.59;821.77;69636.00;0.23;121.13;;;;;34.00;1.00;;;;;;2265664;61;1234;-84
2023/07/12 10:14:44;49463.00;0.16;86.26;0.00;0.00;0.62;;;;;33.80;1.00;;;;;;2265153;61;1655;-85
2023/07/12 10:17:18;182093.00;0.61;315.09;0.00;0.00;0.62;;;;;33.50;1.00;;;;;;2265176;61;1659;-84